Time;durP1;ratioP1;P1;durP2;ratioP2;P2;SDS_P1;SDS_P2;PMS_P1;PMS_P2;Temp;Humidity;BMP_temperature;BMP_pressure;BME280_temperature;BME280_humidity;BME280_pressure;Samples;Min_cycle;Max_cycle;Signal;HPM_P1;HPM_P2
2023/10/10 00:04:19;;;;;;;23.05;16.25;;;21.30;78.20;;;;;;10830642;33;20326;-71
2023/10/10 00:10:21;;;;;;;21.05;15.52;;;21.30;78.50;;;;;;10829899;33;20299;-71
2023/10/10 00:16:26;;;;;;;19.00;14.20;;;21.30;78.60;;;;;;10829086;33;20028;-71
2023/10/10 00:22:35;;;;;;;22.25;15.57;;;21.30;78.50;;;;;;10828983;33;20020;-71
2023/10/10 00:28:39;;;;;;;29.15;18.50;;;21.10;78.60;;;;;;10828783;33;20196;-71
2023/10/10 00:34:43;;;;;;;23.62;19.33;;;21.10;78.60;;;;;;10829241;33;20047;-71
2023/10/10 00:40:47;;;;;;;18.85;15.40;;;21.10;78.60;;;;;;10829579;33;20035;-70
2023/10/10 00:46:55;;;;;;;27.00;16.58;;;21.10;78.60;;;;;;10828824;33;20365;-71
2023/10/10 00:53:00;;;;;;;26.20;17.23;;;21.10;78.70;;;;;;10828021;33;20024;-70
2023/10/10 00:59:03;;;;;;;19.98;15.77;;;21.00;78.90;;;;;;10827087;32;20027;-71
2023/10/10 01:05:12;;;;;;;19.65;15.75;;;21.00;78.90;;;;;;10829607;33;20042;-71
2023/10/10 01:11:16;;;;;;;17.05;14.15;;;20.90;78.90;;;;;;10827474;33;20016;-71
2023/10/10 01:17:19;;;;;;;20.90;16.00;;;20.90;79.40;;;;;;10827471;33;20020;-71
2023/10/10 01:23:27;;;;;;;16.90;13.15;;;20.90;79.50;;;;;;10827161;33;20049;-71
2023/10/10 01:29:40;;;;;;;22.33;17.13;;;20.80;79.60;;;;;;10828294;33;20047;-71
2023/10/10 01:35:43;;;;;;;21.42;15.75;;;20.80;79.40;;;;;;10826888;33;20016;-71
2023/10/10 01:41:48;;;;;;;22.08;16.02;;;20.80;79.30;;;;;;10827184;33;20042;-71
2023/10/10 01:47:56;;;;;;;19.55;16.23;;;20.80;79.70;;;;;;10849693;32;20022;-71
2023/10/10 01:54:00;;;;;;;21.45;15.90;;;20.80;79.90;;;;;;10981553;32;20019;-70
2023/10/10 02:00:19;;;;;;;23.90;17.30;;;20.80;79.80;;;;;;10969163;32;20321;-71
2023/10/10 02:12:27;;;;;;;24.98;16.55;;;20.80;79.50;;;;;;10981599;32;20049;-71
2023/10/10 02:18:51;;;;;;;21.80;16.33;;;20.80;79.80;;;;;;10981962;32;20039;-71
2023/10/10 02:31:34;;;;;;;22.15;17.02;;;20.70;80.20;;;;;;10863502;32;20015;-70
2023/10/10 02:37:45;;;;;;;26.77;19.92;;;20.80;80.00;;;;;;10860315;32;20051;-71
2023/10/10 02:43:56;;;;;;;22.73;16.48;;;20.80;80.10;;;;;;10864145;32;20054;-71
2023/10/10 02:50:10;;;;;;;22.35;16.52;;;20.80;80.20;;;;;;10882124;32;20034;-71
2023/10/10 02:56:17;;;;;;;23.75;16.85;;;20.80;80.20;;;;;;10897555;32;20031;-70
2023/10/10 03:02:40;;;;;;;23.55;19.83;;;20.80;80.20;;;;;;10810791;32;20437;-70
2023/10/10 03:08:51;;;;;;;23.25;17.60;;;20.80;80.20;;;;;;10787487;33;20354;-71
2023/10/10 03:14:53;;;;;;;29.30;21.42;;;20.70;80.20;;;;;;10788003;33;20398;-70
2023/10/10 03:40:09;;;;;;;20.95;17.50;;;20.60;80.20;;;;;;10912709;32;20023;-70
2023/10/10 05:27:43;;;;;;;25.98;17.02;;;20.60;80.50;;;;;;10828139;33;20046;-70
2023/10/10 05:33:47;;;;;;;23.23;18.10;;;20.50;80.80;;;;;;10825572;33;20028;-70
2023/10/10 05:39:56;;;;;;;22.60;14.70;;;20.40;80.70;;;;;;10812377;32;20053;-70
2023/10/10 05:46:08;;;;;;;20.60;15.30;;;20.50;80.70;;;;;;10826508;33;20059;-71
2023/10/10 05:52:12;;;;;;;17.55;12.23;;;20.50;80.60;;;;;;10826296;33;20079;-70
2023/10/10 05:58:23;;;;;;;20.23;14.35;;;20.40;80.60;;;;;;10826441;33;20038;-70
2023/10/10 06:04:25;;;;;;;20.62;16.67;;;20.50;80.50;;;;;;10825963;33;20019;-71
2023/10/10 06:10:31;;;;;;;20.83;14.40;;;20.50;80.60;;;;;;10825387;33;20050;-70
2023/10/10 06:16:33;;;;;;;20.50;14.05;;;20.60;80.60;;;;;;10825130;33;20058;-71
2023/10/10 06:22:36;;;;;;;18.20;14.87;;;20.50;80.50;;;;;;10826408;33;20306;-71
2023/10/10 06:28:47;;;;;;;22.08;15.45;;;20.50;80.30;;;;;;10825369;33;20046;-71
2023/10/10 06:35:04;;;;;;;19.70;15.00;;;20.60;80.20;;;;;;10811880;33;20040;-71
2023/10/10 06:41:17;;;;;;;17.12;13.32;;;20.70;80.30;;;;;;10823913;33;20040;-71
2023/10/10 06:47:21;;;;;;;17.90;12.35;;;20.70;80.30;;;;;;10837951;27;20162;-70
2023/10/10 06:53:45;;;;;;;15.77;11.10;;;20.80;80.10;;;;;;10978487;32;20062;-71
2023/10/10 06:59:58;;;;;;;19.87;12.98;;;20.90;79.80;;;;;;10977275;32;20038;-71
2023/10/10 07:06:03;;;;;;;24.00;18.08;;;21.00;79.70;;;;;;10948671;32;20070;-71
2023/10/10 07:12:13;;;;;;;22.17;18.15;;;21.00;79.60;;;;;;10978543;32;20031;-71
2023/10/10 07:18:16;;;;;;;17.12;14.50;;;21.20;79.50;;;;;;10978936;32;20014;-71
2023/10/10 07:24:18;;;;;;;22.83;16.48;;;21.30;79.40;;;;;;10979019;32;20053;-71
2023/10/10 07:30:30;;;;;;;25.67;14.15;;;21.30;79.30;;;;;;10978715;32;20038;-71
2023/10/10 07:36:33;;;;;;;21.77;16.83;;;21.30;79.30;;;;;;10978435;32;20018;-71
2023/10/10 07:42:37;;;;;;;23.38;17.73;;;21.40;79.20;;;;;;10978563;32;20018;-71
2023/10/10 07:48:44;;;;;;;21.10;15.90;;;21.50;79.10;;;;;;10936141;32;20058;-71
2023/10/10 07:54:51;;;;;;;24.10;18.20;;;21.60;79.00;;;;;;10820067;33;20326;-71
2023/10/10 08:01:07;;;;;;;22.73;17.62;;;21.60;78.90;;;;;;10820685;33;20394;-71
2023/10/10 08:07:10;;;;;;;21.62;16.62;;;21.70;78.90;;;;;;10827691;32;20338;-71
2023/10/10 08:13:12;;;;;;;20.67;16.83;;;21.80;78.80;;;;;;10815308;33;20066;-72
2023/10/10 08:19:15;;;;;;;17.40;14.55;;;21.80;78.70;;;;;;10811159;33;20397;-72
2023/10/10 08:25:17;;;;;;;25.12;18.30;;;22.00;78.50;;;;;;10803814;32;20040;-73
2023/10/10 08:31:20;;;;;;;25.23;20.85;;;22.10;78.30;;;;;;10825348;33;20291;-71
2023/10/10 08:37:27;;;;;;;27.00;20.65;;;22.20;78.20;;;;;;10829593;33;20101;-71
2023/10/10 08:43:31;;;;;;;32.05;22.62;;;22.30;78.20;;;;;;10828707;33;20406;-71
2023/10/10 08:49:35;;;;;;;28.38;20.42;;;22.40;78.10;;;;;;10813942;33;20032;-71
2023/10/10 08:55:38;;;;;;;22.05;16.48;;;22.50;78.10;;;;;;10827879;33;20353;-70
2023/10/10 09:01:42;;;;;;;26.98;21.02;;;22.60;78.10;;;;;;10829082;33;20082;-70
2023/10/10 09:07:46;;;;;;;30.85;22.13;;;22.70;77.90;;;;;;10827663;33;20024;-69
2023/10/10 09:13:52;;;;;;;28.70;18.83;;;22.80;77.90;;;;;;10827461;33;20024;-70
2023/10/10 09:20:00;;;;;;;28.83;21.50;;;22.80;77.80;;;;;;10821019;32;20031;-71
2023/10/10 09:26:19;;;;;;;31.13;21.17;;;22.90;77.70;;;;;;10828225;33;20024;-70
2023/10/10 09:32:36;;;;;;;29.58;22.40;;;22.90;77.60;;;;;;10827498;33;20416;-70
2023/10/10 09:38:47;;;;;;;24.67;16.00;;;22.90;77.60;;;;;;10827082;33;20020;-69
2023/10/10 09:45:16;;;;;;;22.00;18.12;;;23.00;77.50;;;;;;10827722;33;20062;-70
2023/10/10 09:57:58;;;;;;;32.45;20.20;;;23.10;77.20;;;;;;10823084;33;20047;-70
2023/10/10 10:04:03;;;;;;;25.75;20.77;;;23.20;77.20;;;;;;10824822;33;20264;-70
2023/10/10 10:10:09;;;;;;;28.60;20.37;;;23.20;77.10;;;;;;10811416;33;20429;-69
2023/10/10 10:16:37;;;;;;;23.67;19.75;;;23.30;77.00;;;;;;10820993;33;20020;-69
2023/10/10 10:22:42;;;;;;;23.80;15.07;;;23.30;76.80;;;;;;10824592;33;20028;-70
2023/10/10 10:28:56;;;;;;;28.33;24.42;;;23.50;76.60;;;;;;10824697;32;20020;-70
2023/10/10 10:35:01;;;;;;;20.30;15.35;;;23.80;76.00;;;;;;10825522;33;20390;-71
2023/10/10 10:41:16;;;;;;;22.77;17.25;;;24.00;75.70;;;;;;10824534;33;20043;-70
2023/10/10 10:47:46;;;;;;;23.60;15.82;;;24.00;75.60;;;;;;10829227;32;20082;-70
2023/10/10 10:53:58;;;;;;;22.50;18.70;;;24.10;75.50;;;;;;10978792;32;20014;-71
2023/10/10 11:00:58;;;;;;;18.10;15.25;;;24.10;75.40;;;;;;10980209;32;20050;-70
2023/10/10 11:07:08;;;;;;;21.60;16.23;;;24.00;75.30;;;;;;10978773;32;20022;-71
2023/10/10 11:13:12;;;;;;;21.80;16.77;;;24.00;75.40;;;;;;10978564;32;20093;-71
2023/10/10 11:25:41;;;;;;;24.30;19.45;;;24.30;75.00;;;;;;10979277;32;20045;-71
2023/10/10 11:31:48;;;;;;;23.30;16.50;;;24.40;74.60;;;;;;10977997;32;20010;-71
2023/10/10 11:37:59;;;;;;;22.00;16.00;;;24.40;74.60;;;;;;10978504;32;20427;-70
2023/10/10 11:44:06;;;;;;;24.05;18.98;;;24.40;74.70;;;;;;10985899;32;20026;-71
2023/10/10 11:50:15;;;;;;;26.15;19.95;;;24.40;74.60;;;;;;10890639;32;20027;-70
2023/10/10 11:56:17;;;;;;;22.25;17.23;;;24.50;74.60;;;;;;10829826;33;20062;-70
2023/10/10 12:02:46;;;;;;;27.15;17.25;;;24.70;74.40;;;;;;10829627;33;20012;-71
2023/10/10 12:08:50;;;;;;;35.20;18.98;;;24.80;74.00;;;;;;10829970;33;20055;-71
2023/10/10 12:14:52;;;;;;;21.27;16.00;;;24.80;73.90;;;;;;10829832;33;20047;-72
2023/10/10 12:21:03;;;;;;;20.95;16.35;;;24.90;73.40;;;;;;10830017;33;20284;-71
2023/10/10 12:27:09;;;;;;;20.65;14.95;;;25.00;73.30;;;;;;10827226;33;20058;-70
2023/10/10 12:33:19;;;;;;;21.35;15.68;;;24.90;73.20;;;;;;10828935;33;20102;-71
2023/10/10 12:39:27;;;;;;;19.52;15.55;;;24.90;73.40;;;;;;10816817;33;20020;-70
2023/10/10 12:45:29;;;;;;;22.95;16.50;;;24.90;73.40;;;;;;10829870;33;20066;-71
2023/10/10 12:51:32;;;;;;;22.50;17.77;;;24.90;73.40;;;;;;10827714;32;20039;-71
2023/10/10 12:57:34;;;;;;;29.73;20.92;;;25.10;73.10;;;;;;10828395;33;20058;-70
2023/10/10 13:03:36;;;;;;;24.30;18.42;;;25.30;72.60;;;;;;10828378;33;20024;-70
2023/10/10 13:09:43;;;;;;;20.25;16.30;;;25.30;72.40;;;;;;10828335;33;20033;-71
2023/10/10 13:15:50;;;;;;;15.48;11.70;;;25.30;72.60;;;;;;10827562;33;20046;-71
2023/10/10 13:21:52;;;;;;;18.17;13.88;;;25.30;72.60;;;;;;10827242;33;20342;-71
2023/10/10 13:27:54;;;;;;;26.85;18.52;;;25.30;72.50;;;;;;10827752;33;20032;-72
2023/10/10 13:33:56;;;;;;;21.85;15.13;;;25.50;71.90;;;;;;10877716;32;20436;-71
2023/10/10 13:39:59;;;;;;;29.12;19.12;;;25.60;71.90;;;;;;10827099;33;20042;-71
2023/10/10 13:46:02;;;;;;;25.65;17.98;;;25.80;71.60;;;;;;10826713;33;20051;-72
2023/10/10 13:52:05;;;;;;;21.23;16.25;;;25.80;71.50;;;;;;10826455;33;20020;-71
2023/10/10 13:58:12;;;;;;;17.95;14.57;;;25.80;71.40;;;;;;10825212;33;20023;-71
2023/10/10 14:04:24;;;;;;;18.50;14.90;;;25.70;71.60;;;;;;10826247;32;20054;-72
2023/10/10 14:10:26;;;;;;;25.50;16.70;;;25.70;71.40;;;;;;10812178;33;20028;-72
2023/10/10 14:16:29;;;;;;;29.20;22.92;;;25.70;71.50;;;;;;10824231;33;20461;-70
2023/10/10 14:22:31;;;;;;;32.35;21.95;;;25.80;71.60;;;;;;10812536;33;20012;-73
2023/10/10 14:28:33;;;;;;;27.37;17.92;;;25.80;71.90;;;;;;10823360;33;20028;-74
2023/10/10 14:34:38;;;;;;;26.52;18.45;;;25.70;72.40;;;;;;10822712;33;20012;-73
2023/10/10 14:40:41;;;;;;;26.58;19.58;;;25.60;72.30;;;;;;10825278;33;20276;-73
2023/10/10 14:46:43;;;;;;;23.25;18.05;;;25.60;72.30;;;;;;10821926;33;20334;-74
2023/10/10 14:52:48;;;;;;;26.45;19.55;;;25.50;72.10;;;;;;10272754;33;17050985;-73
2023/10/10 14:58:50;;;;;;;26.40;18.95;;;25.50;72.20;;;;;;10787755;33;20012;-74
2023/10/10 15:04:52;;;;;;;21.92;17.30;;;25.40;72.10;;;;;;10787652;33;20029;-74
2023/10/10 15:10:54;;;;;;;21.60;17.65;;;25.40;72.20;;;;;;10785459;33;20074;-73
2023/10/10 15:16:58;;;;;;;30.00;18.98;;;25.30;72.20;;;;;;10785427;33;20422;-73
2023/10/10 15:23:00;;;;;;;18.55;15.88;;;25.30;72.30;;;;;;10787087;33;20042;-73
2023/10/10 15:29:03;;;;;;;21.67;17.52;;;25.30;72.40;;;;;;10787150;33;20067;-73
2023/10/10 15:35:08;;;;;;;23.95;16.90;;;25.20;72.30;;;;;;10787537;33;20299;-73
2023/10/10 15:41:23;;;;;;;24.70;17.70;;;25.20;72.40;;;;;;10787210;33;20029;-73
2023/10/10 15:47:25;;;;;;;22.25;15.80;;;25.10;72.50;;;;;;10785523;33;20059;-73
2023/10/10 15:53:27;;;;;;;24.48;17.83;;;25.10;72.60;;;;;;10786732;33;20033;-73
2023/10/10 15:59:29;;;;;;;20.27;15.35;;;25.10;72.50;;;;;;10786890;33;20429;-73
2023/10/10 16:05:39;;;;;;;19.77;14.87;;;25.00;72.60;;;;;;10787413;33;20133;-73
2023/10/10 16:11:43;;;;;;;26.83;17.23;;;25.00;72.80;;;;;;10786192;33;20056;-73
2023/10/10 16:17:45;;;;;;;21.83;17.08;;;24.80;72.90;;;;;;10786451;33;20024;-74
2023/10/10 16:23:48;;;;;;;25.12;18.08;;;24.80;73.00;;;;;;10786420;33;20047;-74
2023/10/10 16:29:55;;;;;;;21.87;16.98;;;24.70;73.30;;;;;;10791590;33;20020;-73
2023/10/10 16:35:59;;;;;;;21.40;16.43;;;24.60;73.40;;;;;;10792332;33;20438;-73
2023/10/10 16:42:02;;;;;;;18.75;15.88;;;24.50;73.50;;;;;;10791101;33;20035;-73
2023/10/10 16:48:22;;;;;;;22.25;15.77;;;24.40;73.70;;;;;;10789683;33;20051;-73
2023/10/10 16:54:24;;;;;;;23.27;17.02;;;24.30;73.90;;;;;;10790783;33;20039;-73
2023/10/10 17:01:01;;;;;;;20.15;14.32;;;24.30;74.00;;;;;;10790907;33;20021;-73
2023/10/10 17:07:13;;;;;;;17.70;14.27;;;24.20;74.20;;;;;;10790609;33;20399;-73
2023/10/10 17:13:15;;;;;;;18.40;13.95;;;24.20;74.40;;;;;;10790392;33;20024;-73
2023/10/10 17:19:22;;;;;;;17.98;12.95;;;24.00;74.50;;;;;;10790758;33;20012;-73
2023/10/10 17:25:24;;;;;;;19.33;13.45;;;23.90;74.60;;;;;;10790335;33;20024;-73
2023/10/10 17:31:26;;;;;;;20.12;13.57;;;23.90;74.70;;;;;;10791358;33;20449;-73
2023/10/10 17:37:29;;;;;;;24.35;14.63;;;23.80;74.80;;;;;;10789960;33;20383;-73
2023/10/10 17:43:34;;;;;;;12.90;10.93;;;23.80;74.90;;;;;;10790233;33;20078;-73
2023/10/10 17:49:36;;;;;;;19.85;15.98;;;23.70;74.90;;;;;;10789772;33;20451;-73
2023/10/10 17:55:43;;;;;;;17.58;12.40;;;23.60;75.10;;;;;;10789632;33;20039;-73
2023/10/10 18:01:45;;;;;;;17.60;11.38;;;23.60;75.20;;;;;;10788361;33;20398;-73
2023/10/10 18:07:47;;;;;;;19.35;15.25;;;23.50;75.40;;;;;;10787737;33;20338;-73
2023/10/10 18:14:08;;;;;;;23.67;16.73;;;23.40;75.50;;;;;;10787498;33;20012;-73
2023/10/10 18:20:16;;;;;;;16.48;12.02;;;23.40;75.60;;;;;;10757595;33;20071;-74
2023/10/10 18:26:20;;;;;;;23.00;17.35;;;23.30;75.70;;;;;;10784146;33;20059;-73
2023/10/10 18:32:42;;;;;;;19.35;14.35;;;23.30;75.90;;;;;;10784402;33;20480;-73
2023/10/10 18:38:45;;;;;;;20.73;16.27;;;23.20;76.00;;;;;;10776568;33;20036;-74
2023/10/10 18:44:48;;;;;;;20.52;14.68;;;23.10;76.00;;;;;;10747930;33;20024;-74
2023/10/10 18:50:50;;;;;;;19.67;16.40;;;23.10;76.10;;;;;;10746874;33;20028;-74
2023/10/10 18:56:52;;;;;;;18.48;14.02;;;23.00;76.20;;;;;;10747255;33;20083;-74
2023/10/10 19:03:06;;;;;;;18.00;13.50;;;22.90;76.30;;;;;;10754407;33;20025;-74
2023/10/10 19:09:11;;;;;;;20.98;15.98;;;22.90;76.30;;;;;;10770055;33;20443;-74
2023/10/10 19:15:16;;;;;;;18.42;13.50;;;22.80;76.40;;;;;;10782963;33;20021;-74
2023/10/10 19:21:21;;;;;;;15.80;12.85;;;22.80;76.40;;;;;;10774562;33;20032;-74
2023/10/10 19:27:25;;;;;;;22.35;16.67;;;22.80;76.50;;;;;;10750299;33;20024;-73
2023/10/10 19:33:27;;;;;;;22.55;19.20;;;22.70;76.60;;;;;;10751429;33;20008;-74
2023/10/10 19:39:29;;;;;;;20.00;16.85;;;22.70;76.70;;;;;;10749646;33;20366;-73
2023/10/10 19:45:34;;;;;;;23.23;16.02;;;22.70;76.80;;;;;;10759862;33;20025;-74
2023/10/10 19:51:41;;;;;;;22.33;16.45;;;22.60;76.80;;;;;;10785956;33;20021;-73
2023/10/10 19:57:46;;;;;;;17.95;13.98;;;22.60;77.00;;;;;;10781915;33;20029;-73
2023/10/10 20:03:50;;;;;;;19.95;15.85;;;22.50;77.00;;;;;;10786690;33;20027;-73
2023/10/10 20:10:15;;;;;;;17.20;14.90;;;22.50;77.00;;;;;;10786184;33;20047;-73
2023/10/10 20:16:21;;;;;;;19.37;15.30;;;22.40;77.10;;;;;;10786965;33;20032;-73
2023/10/10 20:22:23;;;;;;;23.90;15.70;;;22.40;77.20;;;;;;10787293;33;20028;-73
2023/10/10 20:28:26;;;;;;;16.25;12.60;;;22.30;77.40;;;;;;10787513;33;20063;-73
2023/10/10 20:34:50;;;;;;;21.58;17.45;;;22.30;77.50;;;;;;10775166;33;20403;-75
2023/10/10 20:40:52;;;;;;;16.52;12.60;;;22.30;77.70;;;;;;10791703;33;20089;-73
2023/10/10 20:47:17;;;;;;;17.80;13.13;;;22.30;77.70;;;;;;10791919;33;20020;-73
2023/10/10 20:53:19;;;;;;;16.95;13.73;;;22.20;77.80;;;;;;10791595;33;20055;-73
2023/10/10 20:59:21;;;;;;;22.17;17.70;;;22.20;78.10;;;;;;10792529;33;20020;-73
2023/10/10 21:05:24;;;;;;;25.85;18.48;;;22.10;78.50;;;;;;10790532;33;20032;-73
2023/10/10 21:11:26;;;;;;;23.95;15.55;;;22.10;78.50;;;;;;10790352;33;20047;-73
2023/10/10 21:17:28;;;;;;;17.80;14.07;;;22.10;78.50;;;;;;10791387;33;20062;-73
2023/10/10 21:23:31;;;;;;;15.93;11.48;;;22.00;78.70;;;;;;10790815;33;20008;-73
2023/10/10 21:29:33;;;;;;;14.77;11.95;;;21.90;79.20;;;;;;10789928;33;20047;-73
2023/10/10 21:35:40;;;;;;;17.77;14.73;;;21.90;79.50;;;;;;10789940;33;20136;-73
2023/10/10 21:41:42;;;;;;;15.38;11.48;;;21.80;79.70;;;;;;10789723;33;20426;-73
2023/10/10 21:47:46;;;;;;;19.35;15.55;;;21.80;80.10;;;;;;10789709;32;20047;-73
2023/10/10 21:53:48;;;;;;;17.00;13.23;;;21.80;80.10;;;;;;10803042;33;20039;-74
2023/10/10 21:59:51;;;;;;;21.40;16.30;;;21.80;79.80;;;;;;10785587;32;20028;-73
2023/10/10 22:05:53;;;;;;;24.12;17.60;;;21.80;79.70;;;;;;10789941;33;20068;-73
2023/10/10 22:11:55;;;;;;;20.62;17.48;;;21.80;79.60;;;;;;10787608;33;20066;-73
2023/10/10 22:17:57;;;;;;;23.90;16.50;;;21.80;79.60;;;;;;10788787;33;20020;-72
2023/10/10 22:23:59;;;;;;;17.62;15.73;;;21.70;79.60;;;;;;10789042;33;20102;-73
2023/10/10 22:30:02;;;;;;;28.70;17.17;;;21.70;79.60;;;;;;10784558;33;20034;-73
2023/10/10 22:36:14;;;;;;;20.33;17.10;;;21.60;79.50;;;;;;10788470;33;20020;-72
2023/10/10 22:42:16;;;;;;;18.15;14.70;;;21.50;79.60;;;;;;10788826;33;20020;-73
2023/10/10 22:48:18;;;;;;;23.42;18.48;;;21.50;79.60;;;;;;10800669;27;20036;-73
2023/10/10 22:54:21;;;;;;;23.33;18.05;;;21.50;79.60;;;;;;10825205;33;20011;-73
2023/10/10 23:00:36;;;;;;;15.38;13.20;;;21.50;79.60;;;;;;10825621;33;20043;-73
2023/10/10 23:06:38;;;;;;;16.55;14.63;;;21.50;79.60;;;;;;10824958;33;20019;-73
2023/10/10 23:12:42;;;;;;;19.33;13.90;;;21.50;79.60;;;;;;10824138;33;20024;-73
2023/10/10 23:18:45;;;;;;;22.60;16.70;;;21.40;79.60;;;;;;10824036;33;20023;-73
2023/10/10 23:24:47;;;;;;;22.05;19.02;;;21.40;80.00;;;;;;10823794;33;20030;-73
2023/10/10 23:30:49;;;;;;;22.23;16.90;;;21.30;80.10;;;;;;10823808;33;20016;-73
2023/10/10 23:36:51;;;;;;;20.27;16.52;;;21.30;80.10;;;;;;10826795;32;20024;-74
2023/10/10 23:42:53;;;;;;;19.05;13.70;;;21.30;80.20;;;;;;10830463;33;20077;-73
2023/10/10 23:48:57;;;;;;;18.30;13.43;;;21.20;80.50;;;;;;10829012;33;20032;-73
2023/10/10 23:55:00;;;;;;;14.77;11.93;;;21.30;80.50;;;;;;10831242;33;20058;-73
